Time;durP1;ratioP1;P1;durP2;ratioP2;P2;SDS_P1;SDS_P2;PMS_P1;PMS_P2;Temp;Humidity;BMP_temperature;BMP_pressure;BME280_temperature;BME280_humidity;BME280_pressure;Samples;Min_cycle;Max_cycle;Signal;HPM_P1;HPM_P2
2022/10/13 00:01:12;;;;;;;19.30;12.03;;;;;;;10.81;92.19;98380.02;1786578;80;20997;-80
2022/10/13 00:03:40;;;;;;;21.62;12.00;;;;;;;10.83;92.81;98375.53;1794185;80;21043;-80
2022/10/13 00:06:10;;;;;;;17.67;11.68;;;;;;;10.85;92.61;98382.12;1794022;80;21374;-79
2022/10/13 00:08:38;;;;;;;21.48;13.58;;;;;;;10.88;92.53;98375.44;1761446;80;20976;-80
2022/10/13 00:11:20;;;;;;;24.57;13.25;;;;;;;10.83;91.90;98372.88;1760461;78;21000;-81
2022/10/13 00:13:49;;;;;;;21.45;13.03;;;;;;;10.79;91.92;98371.20;1788064;80;21023;-81
2022/10/13 00:16:19;;;;;;;21.45;13.72;;;;;;;10.71;91.84;98370.07;1793047;80;21019;-82
2022/10/13 00:18:47;;;;;;;20.15;12.60;;;;;;;10.69;92.61;98367.92;1786000;80;20965;-80
2022/10/13 00:21:17;;;;;;;22.02;14.13;;;;;;;10.71;92.45;98365.25;1790965;80;21048;-76
2022/10/13 00:23:46;;;;;;;22.52;13.78;;;;;;;10.68;92.17;98361.74;1786407;80;20940;-76
2022/10/13 00:26:17;;;;;;;21.25;13.62;;;;;;;10.68;92.67;98359.56;1787301;80;21088;-74
2022/10/13 00:28:43;;;;;;;23.55;14.28;;;;;;;10.69;92.87;98359.53;1793794;80;21048;-75
2022/10/13 00:31:20;;;;;;;22.50;13.70;;;;;;;10.72;93.06;98355.94;1793367;80;21020;-75
2022/10/13 00:33:51;;;;;;;22.70;14.23;;;;;;;10.72;92.59;98352.41;1777441;80;20990;-75
2022/10/13 00:36:22;;;;;;;25.50;14.93;;;;;;;10.71;92.46;98361.27;1791434;80;20980;-75
2022/10/13 00:38:49;;;;;;;25.37;14.70;;;;;;;10.67;92.58;98360.48;1789963;80;21396;-76
2022/10/13 00:41:15;;;;;;;26.97;14.30;;;;;;;10.66;92.56;98351.64;1785349;80;21004;-76
2022/10/13 00:44:05;;;;;;;21.85;13.45;;;;;;;10.65;92.49;98352.56;1757636;81;20985;-77
2022/10/13 00:46:35;;;;;;;30.25;15.10;;;;;;;10.62;92.32;98349.09;1781984;80;21397;-76
2022/10/13 00:49:08;;;;;;;22.85;15.03;;;;;;;10.60;92.37;98353.56;1791088;80;20969;-76
2022/10/13 00:51:43;;;;;;;21.95;14.80;;;;;;;10.59;92.37;98353.16;1792209;80;21036;-75
2022/10/13 00:54:15;;;;;;;23.15;15.30;;;;;;;10.56;92.61;98344.35;1775634;80;21532;-76
2022/10/13 00:56:43;;;;;;;23.10;16.30;;;;;;;10.56;92.56;98342.17;1775975;80;21079;-77
2022/10/13 00:59:21;;;;;;;20.82;14.28;;;;;;;10.56;92.75;98343.03;1771978;80;20957;-77
2022/10/13 01:01:46;;;;;;;26.93;16.57;;;;;;;10.58;93.00;98341.67;1772604;80;21110;-76
2022/10/13 01:04:14;;;;;;;24.12;14.45;;;;;;;10.58;92.63;98341.67;1768835;80;21005;-76
2022/10/13 01:06:42;;;;;;;22.00;13.43;;;;;;;10.57;92.78;98345.23;1779296;80;21016;-77
2022/10/13 01:09:08;;;;;;;21.70;13.83;;;;;;;10.56;93.41;98344.35;1782929;80;20957;-74
2022/10/13 01:12:10;;;;;;;26.05;13.98;;;;;;;10.55;93.01;98351.04;1775126;80;20969;-74
2022/10/13 01:14:42;;;;;;;26.37;14.20;;;;;;;10.53;93.40;98346.21;1782584;80;20984;-75
2022/10/13 01:17:37;;;;;;;24.60;13.58;;;;;;;10.49;93.65;98339.23;1779977;80;20977;-75
2022/10/13 01:20:32;;;;;;;19.10;12.33;;;;;;;10.51;93.81;98340.09;1767254;80;21517;-75
2022/10/13 01:23:20;;;;;;;24.15;14.85;;;;;;;10.52;93.71;98334.76;1731831;80;20977;-75
2022/10/13 01:25:58;;;;;;;20.48;12.28;;;;;;;10.54;93.80;98340.88;1777643;80;20999;-75
2022/10/13 01:28:55;;;;;;;20.95;12.80;;;;;;;10.59;93.83;98345.20;1789155;80;20944;-75
2022/10/13 01:31:38;;;;;;;19.57;13.08;;;;;;;10.60;93.71;98347.83;1767836;80;21401;-74
2022/10/13 01:34:26;;;;;;;22.05;12.65;;;;;;;10.66;94.02;98348.99;1772902;80;21058;-75
2022/10/13 01:37:10;;;;;;;19.05;11.60;;;;;;;10.73;93.96;98344.86;1764975;80;20999;-74
2022/10/13 01:39:48;;;;;;;20.02;12.03;;;;;;;10.78;94.03;98344.29;1792405;80;21040;-75
2022/10/13 01:42:41;;;;;;;20.20;13.22;;;;;;;10.86;94.19;98351.61;1796247;80;20960;-75
2022/10/13 01:45:14;;;;;;;18.25;11.63;;;;;;;10.92;94.09;98354.57;1695884;83;21032;-75
2022/10/13 01:47:42;;;;;;;18.60;12.05;;;;;;;10.92;93.75;98342.64;1750905;80;21011;-75
2022/10/13 01:50:10;;;;;;;19.12;12.90;;;;;;;10.94;93.92;98343.45;1797607;80;20933;-76
2022/10/13 01:52:39;;;;;;;18.90;12.65;;;;;;;10.99;94.08;98345.98;1796813;80;20991;-75
2022/10/13 01:55:10;;;;;;;20.48;11.35;;;;;;;11.04;93.78;98343.63;1795084;80;20965;-75
2022/10/13 01:57:45;;;;;;;17.73;11.30;;;;;;;11.07;93.72;98336.94;1796954;80;21008;-85
2022/10/13 02:00:21;;;;;;;20.75;12.88;;;;;;;11.09;93.19;98333.77;1774880;80;20980;-84
2022/10/13 02:03:12;;;;;;;21.02;12.20;;;;;;;11.09;93.14;98335.09;1789468;80;21497;-85
2022/10/13 02:05:53;;;;;;;18.77;12.28;;;;;;;11.09;93.62;98332.92;1784248;80;20996;-85
2022/10/13 02:08:47;;;;;;;23.47;12.70;;;;;;;11.17;93.78;98336.22;1790967;80;20981;-84
2022/10/13 02:11:20;;;;;;;20.20;11.50;;;;;;;11.23;93.91;98337.84;1786131;80;21550;-83
2022/10/13 02:14:09;;;;;;;21.73;13.20;;;;;;;11.28;93.55;98337.27;1787117;80;21533;-84
2022/10/13 02:16:40;;;;;;;19.10;12.33;;;;;;;11.29;93.36;98342.13;1791335;80;21096;-82
2022/10/13 02:19:11;;;;;;;19.23;14.00;;;;;;;11.28;93.62;98347.00;1783260;78;21012;-82
2022/10/13 02:21:39;;;;;;;19.30;11.57;;;;;;;11.31;93.18;98335.88;1790538;80;21440;-83
2022/10/13 02:24:09;;;;;;;19.23;11.57;;;;;;;11.29;92.86;98331.52;1792123;80;21008;-85
2022/10/13 02:26:37;;;;;;;19.37;11.75;;;;;;;11.27;92.78;98336.86;1786826;80;21461;-85
2022/10/13 02:29:15;;;;;;;17.85;11.78;;;;;;;11.27;92.96;98337.30;1793399;80;21001;-85
2022/10/13 02:31:47;;;;;;;16.97;12.60;;;;;;;11.28;93.06;98335.94;1782401;80;21060;-85
2022/10/13 02:34:14;;;;;;;21.23;12.80;;;;;;;11.29;92.93;98335.50;1772826;80;21028;-83
2022/10/13 02:36:43;;;;;;;21.17;12.53;;;;;;;11.29;93.17;98343.46;1783423;80;20941;-85
2022/10/13 02:39:11;;;;;;;20.65;12.75;;;;;;;11.31;92.99;98337.20;1792715;80;20937;-84
2022/10/13 02:41:39;;;;;;;20.75;13.28;;;;;;;11.29;92.89;98331.05;1790889;80;20980;-83
2022/10/13 02:44:08;;;;;;;20.02;12.75;;;;;;;11.27;92.69;98341.28;1792056;80;21102;-85
2022/10/13 02:46:36;;;;;;;23.65;13.45;;;;;;;11.23;93.00;98348.46;1773769;80;21047;-85
2022/10/13 02:49:03;;;;;;;19.15;12.80;;;;;;;11.19;92.93;98340.16;1794345;80;20953;-84
2022/10/13 02:51:31;;;;;;;23.35;13.60;;;;;;;11.14;93.16;98347.37;1764421;80;21103;-84
2022/10/13 02:54:01;;;;;;;22.17;12.37;;;;;;;11.07;93.60;98349.31;1776177;80;21751;-84
2022/10/13 02:56:28;;;;;;;23.25;13.75;;;;;;;11.02;93.45;98357.84;1771462;80;21012;-83
2022/10/13 02:58:56;;;;;;;29.80;13.95;;;;;;;10.95;94.08;98351.82;1747975;80;20983;-84
2022/10/13 03:01:22;;;;;;;23.18;14.10;;;;;;;10.88;93.97;98354.23;1763339;80;20981;-83
2022/10/13 03:03:49;;;;;;;20.48;13.70;;;;;;;10.81;94.04;98360.98;1776067;80;20952;-82
2022/10/13 03:06:16;;;;;;;23.57;14.80;;;;;;;10.76;95.28;98355.40;1769178;80;20984;-83
2022/10/13 03:08:43;;;;;;;20.95;13.18;;;;;;;10.69;95.52;98360.86;1773277;80;20957;-83
2022/10/13 03:11:11;;;;;;;24.12;14.68;;;;;;;10.65;95.19;98365.81;1788322;80;21016;-83
2022/10/13 03:13:38;;;;;;;26.55;14.55;;;;;;;10.62;95.73;98361.02;1770898;80;20952;-83
2022/10/13 03:16:07;;;;;;;23.27;13.48;;;;;;;10.60;96.26;98362.84;1794271;80;20992;-84
2022/10/13 03:18:34;;;;;;;23.65;14.35;;;;;;;10.58;96.62;98359.38;1787972;80;20985;-84
2022/10/13 03:21:05;;;;;;;23.02;14.23;;;;;;;10.59;96.32;98361.11;1763445;80;21040;-83
2022/10/13 03:23:34;;;;;;;22.52;14.35;;;;;;;10.60;96.58;98361.08;1776106;80;21397;-83
2022/10/13 03:26:00;;;;;;;20.95;13.28;;;;;;;10.61;96.26;98366.78;1764479;80;21003;-83
2022/10/13 03:28:30;;;;;;;20.32;13.00;;;;;;;10.64;96.75;98365.84;1769287;80;21478;-83
2022/10/13 03:31:04;;;;;;;22.05;13.18;;;;;;;10.66;96.15;98355.62;1762886;80;21061;-84
2022/10/13 03:33:31;;;;;;;24.27;13.98;;;;;;;10.70;96.10;98359.06;1762841;80;20957;-84
2022/10/13 03:36:03;;;;;;;22.67;12.68;;;;;;;10.75;95.91;98361.14;1786571;80;20960;-84
2022/10/13 03:38:35;;;;;;;22.62;12.93;;;;;;;10.79;95.98;98354.86;1794311;80;21039;-84
2022/10/13 03:41:12;;;;;;;23.73;13.13;;;;;;;10.83;95.86;98353.00;1789936;80;20977;-83
2022/10/13 03:43:42;;;;;;;21.73;13.93;;;;;;;10.89;96.26;98358.61;1764410;80;21012;-83
2022/10/13 03:46:12;;;;;;;20.37;13.15;;;;;;;10.97;96.87;98350.02;1789604;80;21472;-84
2022/10/13 03:48:39;;;;;;;27.65;13.70;;;;;;;11.05;97.54;98353.33;1794343;80;20981;-84
2022/10/13 03:51:10;;;;;;;23.90;13.60;;;;;;;11.14;97.35;98342.95;1794209;80;21060;-83
2022/10/13 03:53:41;;;;;;;23.35;13.83;;;;;;;11.19;96.67;98335.74;1781382;80;20960;-83
2022/10/13 03:56:20;;;;;;;20.62;12.70;;;;;;;11.21;96.44;98340.53;1764545;80;21070;-84
2022/10/13 03:58:52;;;;;;;23.40;13.05;;;;;;;11.20;96.29;98344.11;1788057;80;20960;-83
2022/10/13 04:01:18;;;;;;;20.75;11.55;;;;;;;11.23;96.54;98344.48;1793908;80;20996;-82
2022/10/13 04:03:46;;;;;;;19.67;11.78;;;;;;;11.24;96.54;98337.41;1791927;80;20999;-84
2022/10/13 04:06:14;;;;;;;20.05;11.45;;;;;;;11.26;96.63;98339.11;1787177;80;21099;-84
2022/10/13 04:08:42;;;;;;;16.60;10.55;;;;;;;11.32;96.58;98352.64;1797578;80;20964;-82
2022/10/13 04:11:12;;;;;;;17.25;11.18;;;;;;;11.31;96.42;98346.92;1797517;80;20968;-82
2022/10/13 04:13:40;;;;;;;17.27;11.20;;;;;;;11.35;97.34;98344.13;1794218;80;20952;-82
2022/10/13 04:16:22;;;;;;;16.57;11.25;;;;;;;11.39;96.64;98346.72;1783138;80;21079;-83
2022/10/13 04:19:03;;;;;;;18.27;11.63;;;;;;;11.41;96.95;98347.09;1790125;80;21024;-83
2022/10/13 04:21:33;;;;;;;19.15;12.47;;;;;;;11.47;97.25;98348.72;1794660;80;21071;-83
2022/10/13 04:24:04;;;;;;;20.90;12.18;;;;;;;11.53;97.72;98352.52;1791479;80;20968;-82
2022/10/13 04:26:35;;;;;;;19.80;11.50;;;;;;;11.59;97.64;98347.51;1737225;81;20953;-83
2022/10/13 04:29:10;;;;;;;21.48;16.40;;;;;;;11.61;97.05;98343.89;1794793;80;20968;-83
2022/10/13 04:31:38;;;;;;;18.95;13.58;;;;;;;11.60;96.61;98338.63;1786851;80;21015;-83
2022/10/13 04:34:06;;;;;;;21.00;13.38;;;;;;;11.62;97.30;98340.77;1791226;80;20984;-84
2022/10/13 04:36:33;;;;;;;17.55;11.75;;;;;;;11.69;98.04;98337.03;1789561;78;21386;-82
2022/10/13 04:38:59;;;;;;;17.30;12.50;;;;;;;11.75;97.61;98335.97;1788623;80;20973;-82
2022/10/13 04:41:28;;;;;;;17.57;11.35;;;;;;;11.72;96.59;98325.45;1794527;80;20991;-84
2022/10/13 04:43:55;;;;;;;21.10;11.88;;;;;;;11.70;96.54;98336.56;1794520;80;21390;-84
2022/10/13 04:46:25;;;;;;;19.50;11.75;;;;;;;11.70;96.53;98345.85;1794986;80;21000;-84
2022/10/13 04:48:54;;;;;;;17.55;12.05;;;;;;;11.70;97.12;98338.77;1792197;80;20956;-85
2022/10/13 04:51:25;;;;;;;19.15;12.47;;;;;;;11.76;97.29;98343.05;1792179;80;20980;-83
2022/10/13 04:53:58;;;;;;;18.75;10.30;;;;;;;11.75;97.35;98332.87;1790755;80;21007;-82
2022/10/13 04:56:27;;;;;;;17.23;11.73;;;;;;;11.77;97.47;98332.83;1798605;80;21091;-83
2022/10/13 04:58:54;;;;;;;17.25;11.53;;;;;;;11.79;97.56;98329.66;1798165;80;20980;-82
2022/10/13 05:01:24;;;;;;;18.50;11.80;;;;;;;11.82;97.14;98326.92;1797870;80;21099;-83
2022/10/13 05:03:54;;;;;;;19.87;12.85;;;;;;;11.80;96.34;98326.56;1798339;80;21336;-83
2022/10/13 05:06:25;;;;;;;19.40;12.33;;;;;;;11.74;97.04;98315.20;1798377;80;20949;-82
2022/10/13 05:08:54;;;;;;;20.45;12.60;;;;;;;11.75;96.86;98320.03;1798223;80;21011;-82
2022/10/13 05:11:23;;;;;;;18.90;12.65;;;;;;;11.71;96.31;98323.72;1797505;80;20989;-83
2022/10/13 05:13:52;;;;;;;18.05;12.28;;;;;;;11.64;96.65;98325.68;1757534;81;21418;-83
2022/10/13 05:16:22;;;;;;;21.17;13.60;;;;;;;11.67;97.26;98325.57;1758700;81;21025;-82
2022/10/13 05:18:53;;;;;;;20.32;13.40;;;;;;;11.67;97.26;98330.88;1736209;82;21782;-82
2022/10/13 05:21:27;;;;;;;18.40;12.82;;;;;;;11.69;97.16;98328.19;1735133;83;20992;-82
2022/10/13 05:23:55;;;;;;;;;;;;;;;11.65;97.24;98328.73;1738524;83;21024;-82
2022/10/13 05:26:27;;;;;;;25.08;13.35;;;;;;;11.64;97.21;98330.11;1733085;83;20390;-82
2022/10/13 05:28:57;;;;;;;22.30;14.00;;;;;;;11.59;96.88;98325.80;1767252;81;20973;-82
2022/10/13 05:31:27;;;;;;;20.23;13.83;;;;;;;11.55;96.96;98328.59;1751051;81;20949;-84
2022/10/13 05:33:56;;;;;;;23.65;14.83;;;;;;;11.51;96.96;98328.27;1747759;81;20975;-84
2022/10/13 05:36:30;;;;;;;20.43;13.68;;;;;;;11.48;96.96;98326.13;1752661;81;21065;-83
2022/10/13 05:39:00;;;;;;;23.00;14.05;;;;;;;11.45;96.53;98327.52;1767929;81;21044;-84
2022/10/13 05:41:30;;;;;;;23.87;14.00;;;;;;;11.42;96.37;98326.74;1747124;81;21103;-83
2022/10/13 05:44:03;;;;;;;35.85;23.55;;;;;;;11.39;96.55;98330.80;1717067;83;21000;-84
2022/10/13 05:46:30;;;;;;;25.08;14.23;;;;;;;11.37;96.31;98333.48;1767276;81;20985;-84
2022/10/13 05:48:59;;;;;;;24.55;13.95;;;;;;;11.36;96.83;98338.38;1762458;81;21430;-83
2022/10/13 05:51:35;;;;;;;23.18;14.95;;;;;;;11.37;97.42;98333.96;1749134;81;21023;-83
2022/10/13 05:54:28;;;;;;;22.90;13.68;;;;;;;11.37;97.70;98337.47;1752626;81;21067;-83
2022/10/13 05:57:06;;;;;;;22.13;13.88;;;;;;;11.34;97.63;98345.53;1730019;82;20962;-83
2022/10/13 05:59:37;;;;;;;23.32;13.68;;;;;;;11.34;97.40;98349.03;1736203;82;21073;-84
2022/10/13 06:02:07;;;;;;;21.48;13.08;;;;;;;11.35;98.13;98353.42;1733082;82;21065;-84
2022/10/13 06:04:40;;;;;;;18.82;13.00;;;;;;;11.34;97.84;98351.69;1714335;82;21105;-84
2022/10/13 06:07:10;;;;;;;20.72;13.20;;;;;;;11.33;97.57;98353.05;1713159;82;21057;-84
2022/10/13 06:09:40;;;;;;;19.23;12.88;;;;;;;11.33;97.79;98361.01;1715375;83;21367;-84
2022/10/13 06:12:08;;;;;;;22.40;12.55;;;;;;;11.33;97.74;98363.22;1708821;82;21171;-82
2022/10/13 06:14:35;;;;;;;20.92;13.05;;;;;;;11.35;97.96;98366.69;1705014;82;21436;-83
2022/10/13 06:17:04;;;;;;;20.82;13.50;;;;;;;11.35;98.18;98367.16;1731936;82;20945;-82
2022/10/13 06:19:30;;;;;;;23.52;13.78;;;;;;;11.35;98.25;98371.14;1698649;84;20993;-83
2022/10/13 06:21:59;;;;;;;20.45;13.58;;;;;;;11.39;97.87;98371.92;1739959;82;21351;-82
2022/10/13 06:24:25;;;;;;;21.00;13.00;;;;;;;11.41;97.95;98373.62;1729750;82;21033;-83
2022/10/13 06:26:52;;;;;;;19.27;13.85;;;;;;;11.46;98.10;98372.19;1724859;82;21486;-82
2022/10/13 06:29:18;;;;;;;21.65;12.85;;;;;;;11.48;97.89;98380.97;1729040;83;20985;-82
2022/10/13 06:31:45;;;;;;;17.55;11.73;;;;;;;11.51;98.21;98378.69;1716529;82;20974;-83
2022/10/13 06:34:12;;;;;;;18.98;11.93;;;;;;;11.53;98.01;98372.88;1723829;82;21589;-83
2022/10/13 06:36:42;;;;;;;19.90;11.90;;;;;;;11.59;98.30;98379.36;1741124;82;21009;-83
2022/10/13 06:39:10;;;;;;;20.17;12.23;;;;;;;11.67;98.21;98377.81;1741492;82;21137;-83
2022/10/13 06:41:37;;;;;;;18.73;12.82;;;;;;;11.72;97.93;98377.23;1730517;82;20949;-83
2022/10/13 06:44:04;;;;;;;20.00;12.47;;;;;;;11.80;98.47;98378.34;1731724;82;21030;-83
2022/10/13 06:46:33;;;;;;;16.62;11.10;;;;;;;11.87;98.25;98386.09;1721044;82;20969;-83
2022/10/13 06:48:59;;;;;;;17.80;11.55;;;;;;;11.96;98.70;98380.11;1741676;82;20942;-83
2022/10/13 06:51:28;;;;;;;16.23;10.60;;;;;;;12.06;98.70;98378.95;1734880;82;21042;-83
2022/10/13 06:53:56;;;;;;;18.10;11.45;;;;;;;12.12;98.78;98380.09;1727534;82;21455;-83
2022/10/13 06:56:24;;;;;;;15.90;11.22;;;;;;;12.18;98.55;98379.05;1703310;83;21038;-83
2022/10/13 06:58:51;;;;;;;16.60;10.65;;;;;;;12.23;98.69;98382.44;1794820;80;20992;-83
2022/10/13 07:01:18;;;;;;;16.85;10.93;;;;;;;12.30;98.61;98376.92;1795076;80;20961;-83
2022/10/13 07:03:49;;;;;;;20.88;11.57;;;;;;;12.31;98.08;98379.54;1794957;80;21332;-83
2022/10/13 07:06:18;;;;;;;18.92;12.07;;;;;;;12.30;97.91;98380.47;1772575;80;20983;-84
2022/10/13 07:08:46;;;;;;;16.37;11.93;;;;;;;12.34;98.46;98376.77;1763476;80;21698;-84
2022/10/13 07:11:17;;;;;;;19.10;11.55;;;;;;;12.38;97.92;98371.77;1784940;80;21024;-84
2022/10/13 07:13:46;;;;;;;16.82;11.53;;;;;;;12.38;97.99;98374.44;1793865;80;21020;-84
2022/10/13 07:16:14;;;;;;;19.17;11.83;;;;;;;12.42;98.10;98373.91;1794054;80;21020;-84
2022/10/13 07:18:41;;;;;;;18.25;11.43;;;;;;;12.48;97.98;98372.38;1772276;80;21008;-83
2022/10/13 07:21:09;;;;;;;16.77;11.50;;;;;;;12.57;98.17;98373.02;1795032;80;20971;-83
2022/10/13 07:23:36;;;;;;;17.50;11.53;;;;;;;12.65;97.94;98368.30;1789980;80;20970;-81
2022/10/13 07:26:13;;;;;;;19.60;12.58;;;;;;;12.72;98.34;98368.53;1764422;80;21350;-81
2022/10/13 07:28:42;;;;;;;23.27;14.03;;;;;;;12.74;97.27;98372.00;1783467;80;21020;-81
2022/10/13 07:31:14;;;;;;;20.00;11.43;;;;;;;12.73;97.17;98366.72;1795045;80;20957;-81
2022/10/13 07:33:44;;;;;;;16.57;10.90;;;;;;;12.78;97.55;98370.98;1790013;80;21964;-82
2022/10/13 07:36:12;;;;;;;15.50;10.72;;;;;;;12.84;97.43;98366.38;1777116;80;20991;-83
2022/10/13 07:38:39;;;;;;;18.60;11.78;;;;;;;12.87;97.23;98367.63;1780402;80;20977;-83
2022/10/13 07:41:10;;;;;;;16.12;11.95;;;;;;;12.90;97.21;98370.16;1790573;80;21512;-82
2022/10/13 07:43:37;;;;;;;22.55;12.63;;;;;;;12.90;96.57;98368.83;1794631;80;20976;-82
2022/10/13 07:46:06;;;;;;;19.40;13.60;;;;;;;12.91;97.46;98365.24;1794683;80;21367;-81
2022/10/13 07:48:34;;;;;;;20.77;14.50;;;;;;;12.91;97.08;98370.56;1796376;80;20977;-83
2022/10/13 07:51:08;;;;;;;21.70;14.15;;;;;;;12.89;96.53;98371.09;1794604;80;21031;-83
2022/10/13 07:53:35;;;;;;;23.35;14.90;;;;;;;12.85;96.39;98367.66;1779881;80;20964;-81
2022/10/13 07:56:06;;;;;;;20.43;14.25;;;;;;;12.82;96.33;98369.56;1763824;80;21061;-81
2022/10/13 07:58:39;;;;;;;20.77;13.55;;;;;;;12.80;96.20;98369.61;1750771;80;21012;-82
2022/10/13 08:01:09;;;;;;;22.10;14.18;;;;;;;12.79;96.55;98363.88;1758045;80;21057;-82
2022/10/13 08:03:39;;;;;;;19.55;13.83;;;;;;;12.80;96.46;98358.97;1773523;80;21005;-81
2022/10/13 08:06:07;;;;;;;23.40;15.28;;;;;;;12.81;96.44;98363.36;1734528;82;21065;-82
2022/10/13 08:08:36;;;;;;;24.15;14.50;;;;;;;12.80;96.01;98366.95;1727651;83;21395;-81
2022/10/13 08:11:08;;;;;;;27.90;15.38;;;;;;;12.78;96.33;98360.34;1736061;82;21022;-81
2022/10/13 08:13:36;;;;;;;25.62;16.20;;;;;;;12.76;95.88;98355.99;1713463;82;20961;-81
2022/10/13 08:16:11;;;;;;;27.90;15.00;;;;;;;12.73;96.07;98355.64;1710266;83;21010;-82
2022/10/13 08:18:38;;;;;;;24.10;14.73;;;;;;;12.74;95.91;98360.03;1734049;82;20997;-81
2022/10/13 08:21:11;;;;;;;20.92;14.35;;;;;;;12.72;95.89;98356.56;1732376;82;21111;-81
2022/10/13 08:23:40;;;;;;;24.40;14.65;;;;;;;12.74;95.87;98364.50;1739567;82;21359;-81
2022/10/13 08:26:20;;;;;;;25.45;14.95;;;;;;;12.75;95.99;98360.43;1719622;82;21012;-79
2022/10/13 08:28:47;;;;;;;21.23;14.70;;;;;;;12.76;96.32;98358.20;1730136;82;21414;-80
2022/10/13 08:31:16;;;;;;;23.32;15.05;;;;;;;12.82;96.50;98362.91;1740853;82;20977;-80
2022/10/13 08:33:46;;;;;;;26.95;16.23;;;;;;;12.84;96.61;98357.07;1722866;82;20971;-79
2022/10/13 08:36:16;;;;;;;42.00;22.00;;;;;;;12.89;96.62;98361.77;1736009;82;20958;-80
2022/10/13 08:38:45;;;;;;;53.78;28.12;;;;;;;12.92;96.84;98359.88;1716472;83;20957;-79
2022/10/13 08:41:25;;;;;;;53.35;30.37;;;;;;;12.94;96.63;98365.15;1722855;83;21022;-79
2022/10/13 08:44:05;;;;;;;60.90;29.82;;;;;;;12.96;96.64;98361.11;1710893;84;20980;-79
2022/10/13 08:46:40;;;;;;;54.42;27.95;;;;;;;12.94;96.22;98364.70;1708431;84;21021;-79
2022/10/13 08:49:07;;;;;;;53.08;28.52;;;;;;;12.94;96.30;98370.02;1687168;82;21008;-80
2022/10/13 08:51:35;;;;;;;41.85;24.75;;;;;;;12.94;96.33;98374.02;1712551;83;20981;-80
2022/10/13 08:54:04;;;;;;;47.33;23.57;;;;;;;12.97;96.03;98370.38;1694292;83;21037;-80
2022/10/13 08:56:34;;;;;;;41.10;22.98;;;;;;;13.00;96.07;98374.25;1721903;83;21052;-80
2022/10/13 08:59:03;;;;;;;33.63;20.85;;;;;;;13.06;95.92;98379.39;1753674;81;20965;-80
2022/10/13 09:01:35;;;;;;;27.15;18.23;;;;;;;13.13;96.12;98371.19;1764443;81;21371;-80
2022/10/13 09:04:35;;;;;;;28.07;17.52;;;;;;;13.22;96.41;98374.88;1747656;81;20972;-80
2022/10/13 09:07:13;;;;;;;28.55;18.07;;;;;;;13.29;95.88;98367.55;1793096;80;21071;-80
2022/10/13 09:09:40;;;;;;;23.70;16.25;;;;;;;13.33;95.50;98372.70;1789956;80;20965;-80
2022/10/13 09:12:10;;;;;;;28.17;18.20;;;;;;;13.42;95.75;98372.83;1785735;80;21048;-80
2022/10/13 09:14:39;;;;;;;30.68;18.10;;;;;;;13.53;95.78;98379.63;1783300;80;21007;-80
2022/10/13 09:17:21;;;;;;;26.30;17.07;;;;;;;13.62;95.18;98375.28;1794037;80;21351;-81
2022/10/13 09:20:08;;;;;;;25.60;17.73;;;;;;;13.71;95.56;98375.43;1787597;80;20988;-82
2022/10/13 09:22:38;;;;;;;29.80;18.23;;;;;;;13.83;95.53;98366.12;1796220;80;21012;-81
2022/10/13 09:25:16;;;;;;;28.95;18.55;;;;;;;13.96;95.50;98363.86;1784634;80;20973;-81
2022/10/13 09:27:59;;;;;;;38.10;20.35;;;;;;;14.07;95.31;98373.64;1792531;80;21036;-82
2022/10/13 09:30:37;;;;;;;32.45;20.12;;;;;;;14.14;93.94;98372.95;1796795;80;21020;-81
2022/10/13 09:33:10;;;;;;;32.85;19.27;;;;;;;14.25;94.62;98376.06;1783980;80;20936;-81
2022/10/13 09:35:42;;;;;;;;;;;;;;;14.33;94.11;98369.10;1783843;80;20973;-81
2022/10/13 09:38:20;;;;;;;35.78;20.75;;;;;;;14.38;94.03;98368.45;1778946;80;20110;-80
2022/10/13 09:41:15;;;;;;;36.05;21.60;;;;;;;14.42;93.07;98367.89;1784547;80;21048;-80
2022/10/13 09:43:50;;;;;;;38.10;22.45;;;;;;;14.45;93.38;98373.09;1787959;80;20984;-82
2022/10/13 09:46:30;;;;;;;36.90;21.87;;;;;;;14.46;92.06;98369.52;1794030;80;21090;-82
2022/10/13 09:49:08;;;;;;;37.05;21.40;;;;;;;14.40;91.93;98373.73;1790707;80;21398;-82
2022/10/13 09:51:39;;;;;;;39.48;20.55;;;;;;;14.50;92.92;98368.44;1718145;82;21032;-83
2022/10/13 09:54:30;;;;;;;40.40;20.82;;;;;;;14.69;92.98;98356.19;1795345;80;20924;-82
2022/10/13 09:57:22;;;;;;;36.10;21.30;;;;;;;14.81;91.76;98352.16;1779568;80;21059;-83
2022/10/13 09:59:52;;;;;;;35.25;21.45;;;;;;;14.92;91.72;98353.94;1769239;80;21399;-81
2022/10/13 10:02:34;;;;;;;33.98;21.12;;;;;;;15.03;91.67;98361.02;1759289;80;20977;-81
2022/10/13 10:05:21;;;;;;;37.58;21.82;;;;;;;15.18;90.60;98352.84;1767037;80;20967;-81
2022/10/13 10:07:48;;;;;;;35.83;21.95;;;;;;;15.29;89.75;98346.16;1770897;80;20973;-81
2022/10/13 10:10:32;;;;;;;32.78;20.80;;;;;;;15.41;89.38;98348.28;1752087;80;21378;-81
2022/10/13 10:13:02;;;;;;;35.55;20.88;;;;;;;15.54;89.73;98343.27;1731982;80;20974;-82
2022/10/13 10:15:58;;;;;;;29.32;19.95;;;;;;;15.73;89.05;98338.92;1760928;80;21000;-85
2022/10/13 10:18:39;;;;;;;30.72;18.85;;;;;;;15.78;87.10;98339.58;1737445;80;21056;-87
2022/10/13 10:21:25;;;;;;;26.85;17.52;;;;;;;15.63;86.32;98333.11;1772991;80;21355;-83
2022/10/13 10:24:15;;;;;;;22.50;15.55;;;;;;;15.66;87.72;98332.98;1777018;80;21508;-78
2022/10/13 10:26:53;;;;;;;24.02;17.02;;;;;;;15.95;88.38;98330.83;1763871;80;21068;-78
2022/10/13 10:29:49;;;;;;;26.10;16.95;;;;;;;16.53;86.07;98325.45;1764513;80;20968;-79
2022/10/13 10:32:44;;;;;;;25.08;16.45;;;;;;;16.74;86.31;98321.70;1760560;80;20981;-80
2022/10/13 10:35:28;;;;;;;22.77;16.02;;;;;;;16.67;82.71;98322.08;1779603;80;20965;-80
2022/10/13 10:38:31;;;;;;;24.67;15.15;;;;;;;16.46;84.40;98315.05;1759716;80;21062;-80
2022/10/13 10:41:26;;;;;;;21.10;15.32;;;;;;;16.41;84.07;98314.41;1777563;80;21008;-79
2022/10/13 10:43:59;;;;;;;26.15;15.28;;;;;;;16.22;83.42;98313.08;1766312;80;21423;-81
2022/10/13 10:46:30;;;;;;;23.87;15.38;;;;;;;16.07;82.82;98310.19;1737058;80;21028;-81
2022/10/13 10:49:03;;;;;;;23.07;15.55;;;;;;;16.00;83.94;98318.11;1755747;80;20997;-80
2022/10/13 10:51:35;;;;;;;26.00;15.50;;;;;;;15.96;83.55;98312.50;1752698;80;21049;-80
2022/10/13 10:54:28;;;;;;;24.70;16.55;;;;;;;16.09;84.37;98311.00;1771682;80;21007;-80
2022/10/13 10:57:05;;;;;;;23.45;14.98;;;;;;;16.36;83.72;98307.93;1782626;80;20988;-80
2022/10/13 10:59:59;;;;;;;24.05;13.93;;;;;;;16.42;82.23;98301.89;1766894;80;21043;-79
2022/10/13 11:02:40;;;;;;;19.05;13.28;;;;;;;16.38;81.46;98295.83;1764054;80;21392;-79
2022/10/13 11:05:06;;;;;;;21.95;14.03;;;;;;;16.47;81.89;98290.48;1785929;80;20937;-79
2022/10/13 11:07:45;;;;;;;20.52;13.55;;;;;;;16.54;81.93;98295.95;1784563;80;21051;-79
2022/10/13 11:10:21;;;;;;;20.82;14.78;;;;;;;16.62;81.52;98288.88;1787417;80;20933;-79
2022/10/13 11:12:56;;;;;;;19.10;14.05;;;;;;;16.62;80.89;98283.03;1795244;80;21397;-79
2022/10/13 11:15:43;;;;;;;18.42;12.28;;;;;;;16.61;81.19;98282.65;1783138;80;21008;-80
2022/10/13 11:18:52;;;;;;;18.70;14.15;;;;;;;16.74;81.89;98270.85;1762707;80;20987;-80
2022/10/13 11:21:21;;;;;;;18.77;12.88;;;;;;;16.83;81.15;98276.69;1746764;80;21096;-80
2022/10/13 11:23:48;;;;;;;17.87;12.53;;;;;;;16.98;81.50;98267.88;1773910;80;21030;-80
2022/10/13 11:26:31;;;;;;;17.10;11.22;;;;;;;17.09;78.90;98262.46;1775252;78;21774;-81
2022/10/13 11:28:59;;;;;;;17.73;11.78;;;;;;;17.09;79.14;98263.34;1786328;80;20996;-81
2022/10/13 11:31:33;;;;;;;17.27;11.57;;;;;;;17.10;79.69;98262.84;1775447;80;20940;-81
2022/10/13 11:34:01;;;;;;;15.18;10.60;;;;;;;17.12;78.39;98260.98;1791517;80;21378;-80
2022/10/13 11:36:46;;;;;;;15.35;11.33;;;;;;;17.09;78.24;98254.43;1774607;80;20980;-80
2022/10/13 11:39:36;;;;;;;18.77;11.57;;;;;;;17.10;78.12;98255.70;1773746;80;21020;-80
2022/10/13 11:42:34;;;;;;;17.12;11.93;;;;;;;17.16;78.23;98253.18;1772457;80;20983;-80
2022/10/13 11:45:05;;;;;;;18.82;12.53;;;;;;;17.40;77.66;98246.13;1777841;80;20992;-79